sensor_id;sensor_type;location;lat;lon;timestamp;P1;durP1;ratioP1;P2;durP2;ratioP2
21095;SDS011;10706;49.036;12.112;2023-07-13T00:01:50;11.70;;;3.30;;
21095;SDS011;10706;49.036;12.112;2023-07-13T00:04:18;7.28;;;3.05;;
21095;SDS011;10706;49.036;12.112;2023-07-13T00:06:47;8.48;;;3.00;;
21095;SDS011;10706;49.036;12.112;2023-07-13T00:09:14;9.43;;;3.13;;
21095;SDS011;10706;49.036;12.112;2023-07-13T00:11:41;11.30;;;3.30;;
21095;SDS011;10706;49.036;12.112;2023-07-13T00:14:08;13.77;;;3.38;;
21095;SDS011;10706;49.036;12.112;2023-07-13T00:16:35;5.90;;;2.80;;
21095;SDS011;10706;49.036;12.112;2023-07-13T00:19:04;9.15;;;3.10;;
21095;SDS011;10706;49.036;12.112;2023-07-13T00:21:31;12.05;;;2.95;;
21095;SDS011;10706;49.036;12.112;2023-07-13T00:23:57;10.32;;;3.10;;
21095;SDS011;10706;49.036;12.112;2023-07-13T00:26:23;6.85;;;2.88;;
21095;SDS011;10706;49.036;12.112;2023-07-13T00:28:49;11.18;;;3.47;;
21095;SDS011;10706;49.036;12.112;2023-07-13T00:31:15;10.35;;;3.10;;
21095;SDS011;10706;49.036;12.112;2023-07-13T00:33:41;7.82;;;2.92;;
21095;SDS011;10706;49.036;12.112;2023-07-13T00:36:07;6.05;;;2.70;;
21095;SDS011;10706;49.036;12.112;2023-07-13T00:38:35;9.88;;;3.13;;
21095;SDS011;10706;49.036;12.112;2023-07-13T00:41:01;11.68;;;3.72;;
21095;SDS011;10706;49.036;12.112;2023-07-13T00:43:29;7.72;;;3.08;;
21095;SDS011;10706;49.036;12.112;2023-07-13T00:48:25;11.65;;;3.05;;
21095;SDS011;10706;49.036;12.112;2023-07-13T00:50:56;7.75;;;3.28;;
21095;SDS011;10706;49.036;12.112;2023-07-13T00:53:25;8.48;;;3.17;;
21095;SDS011;10706;49.036;12.112;2023-07-13T00:55:53;9.45;;;3.40;;
21095;SDS011;10706;49.036;12.112;2023-07-13T00:58:21;9.10;;;3.30;;
21095;SDS011;10706;49.036;12.112;2023-07-13T01:00:49;8.98;;;3.50;;
21095;SDS011;10706;49.036;12.112;2023-07-13T01:03:15;9.52;;;3.80;;
21095;SDS011;10706;49.036;12.112;2023-07-13T01:05:42;7.82;;;3.17;;
21095;SDS011;10706;49.036;12.112;2023-07-13T01:08:08;6.32;;;3.15;;
21095;SDS011;10706;49.036;12.112;2023-07-13T01:10:34;9.73;;;3.22;;
21095;SDS011;10706;49.036;12.112;2023-07-13T01:13:07;11.52;;;3.53;;
21095;SDS011;10706;49.036;12.112;2023-07-13T01:15:42;9.85;;;3.33;;
21095;SDS011;10706;49.036;12.112;2023-07-13T01:18:15;9.30;;;3.22;;
21095;SDS011;10706;49.036;12.112;2023-07-13T01:20:54;6.57;;;3.17;;
21095;SDS011;10706;49.036;12.112;2023-07-13T01:23:29;8.60;;;3.25;;
21095;SDS011;10706;49.036;12.112;2023-07-13T01:25:56;8.68;;;3.60;;
21095;SDS011;10706;49.036;12.112;2023-07-13T01:28:23;9.02;;;2.92;;
21095;SDS011;10706;49.036;12.112;2023-07-13T01:30:51;9.98;;;3.38;;
21095;SDS011;10706;49.036;12.112;2023-07-13T01:33:19;9.75;;;3.20;;
21095;SDS011;10706;49.036;12.112;2023-07-13T01:35:45;5.90;;;3.22;;
21095;SDS011;10706;49.036;12.112;2023-07-13T01:38:13;9.27;;;3.17;;
21095;SDS011;10706;49.036;12.112;2023-07-13T01:40:40;9.55;;;3.58;;
21095;SDS011;10706;49.036;12.112;2023-07-13T01:43:07;11.98;;;3.38;;
21095;SDS011;10706;49.036;12.112;2023-07-13T01:45:33;7.05;;;2.97;;
21095;SDS011;10706;49.036;12.112;2023-07-13T01:47:58;9.13;;;3.22;;
21095;SDS011;10706;49.036;12.112;2023-07-13T01:50:25;7.82;;;3.00;;
21095;SDS011;10706;49.036;12.112;2023-07-13T01:52:51;9.45;;;3.47;;
21095;SDS011;10706;49.036;12.112;2023-07-13T01:55:17;8.18;;;3.05;;
21095;SDS011;10706;49.036;12.112;2023-07-13T01:57:43;8.82;;;3.53;;
21095;SDS011;10706;49.036;12.112;2023-07-13T02:00:09;9.50;;;3.88;;
21095;SDS011;10706;49.036;12.112;2023-07-13T02:02:36;8.38;;;3.15;;
21095;SDS011;10706;49.036;12.112;2023-07-13T02:05:02;9.57;;;3.65;;
21095;SDS011;10706;49.036;12.112;2023-07-13T02:07:28;10.30;;;3.60;;
21095;SDS011;10706;49.036;12.112;2023-07-13T02:09:54;12.43;;;4.38;;
21095;SDS011;10706;49.036;12.112;2023-07-13T02:12:19;9.82;;;3.45;;
21095;SDS011;10706;49.036;12.112;2023-07-13T02:14:45;10.55;;;4.15;;
21095;SDS011;10706;49.036;12.112;2023-07-13T02:17:11;9.00;;;3.80;;
21095;SDS011;10706;49.036;12.112;2023-07-13T02:19:37;8.63;;;3.83;;
21095;SDS011;10706;49.036;12.112;2023-07-13T02:22:03;12.57;;;4.28;;
21095;SDS011;10706;49.036;12.112;2023-07-13T02:24:29;10.55;;;4.10;;
21095;SDS011;10706;49.036;12.112;2023-07-13T02:26:54;11.32;;;4.60;;
21095;SDS011;10706;49.036;12.112;2023-07-13T02:29:20;10.82;;;4.50;;
21095;SDS011;10706;49.036;12.112;2023-07-13T02:31:46;11.02;;;3.88;;
21095;SDS011;10706;49.036;12.112;2023-07-13T02:34:11;9.93;;;4.18;;
21095;SDS011;10706;49.036;12.112;2023-07-13T02:36:37;12.38;;;4.13;;
21095;SDS011;10706;49.036;12.112;2023-07-13T02:39:04;10.63;;;4.28;;
21095;SDS011;10706;49.036;12.112;2023-07-13T02:41:31;12.73;;;4.25;;
21095;SDS011;10706;49.036;12.112;2023-07-13T02:43:59;8.02;;;3.70;;
21095;SDS011;10706;49.036;12.112;2023-07-13T02:46:35;13.68;;;3.90;;
21095;SDS011;10706;49.036;12.112;2023-07-13T02:49:02;14.88;;;4.63;;
21095;SDS011;10706;49.036;12.112;2023-07-13T02:51:29;12.40;;;4.28;;
21095;SDS011;10706;49.036;12.112;2023-07-13T02:53:55;10.70;;;3.95;;
21095;SDS011;10706;49.036;12.112;2023-07-13T02:56:22;9.70;;;4.05;;
21095;SDS011;10706;49.036;12.112;2023-07-13T02:58:51;9.82;;;3.83;;
21095;SDS011;10706;49.036;12.112;2023-07-13T03:01:19;9.60;;;3.97;;
21095;SDS011;10706;49.036;12.112;2023-07-13T03:03:46;10.57;;;4.28;;
21095;SDS011;10706;49.036;12.112;2023-07-13T03:06:12;10.15;;;4.35;;
21095;SDS011;10706;49.036;12.112;2023-07-13T03:08:39;8.73;;;3.92;;
21095;SDS011;10706;49.036;12.112;2023-07-13T03:11:09;11.35;;;4.70;;
21095;SDS011;10706;49.036;12.112;2023-07-13T03:13:40;12.77;;;4.25;;
21095;SDS011;10706;49.036;12.112;2023-07-13T03:16:07;12.65;;;4.40;;
21095;SDS011;10706;49.036;12.112;2023-07-13T03:18:35;12.35;;;4.90;;
21095;SDS011;10706;49.036;12.112;2023-07-13T03:21:01;15.35;;;4.47;;
21095;SDS011;10706;49.036;12.112;2023-07-13T03:23:28;14.40;;;4.13;;
21095;SDS011;10706;49.036;12.112;2023-07-13T03:26:01;14.15;;;4.20;;
21095;SDS011;10706;49.036;12.112;2023-07-13T03:28:32;14.60;;;4.30;;
21095;SDS011;10706;49.036;12.112;2023-07-13T03:30:59;12.35;;;4.38;;
21095;SDS011;10706;49.036;12.112;2023-07-13T03:33:28;9.00;;;4.22;;
21095;SDS011;10706;49.036;12.112;2023-07-13T03:35:53;11.10;;;4.22;;
21095;SDS011;10706;49.036;12.112;2023-07-13T03:38:19;13.65;;;4.32;;
21095;SDS011;10706;49.036;12.112;2023-07-13T03:40:45;11.10;;;4.18;;
21095;SDS011;10706;49.036;12.112;2023-07-13T03:43:11;12.73;;;4.47;;
21095;SDS011;10706;49.036;12.112;2023-07-13T03:45:39;7.20;;;3.65;;
21095;SDS011;10706;49.036;12.112;2023-07-13T03:48:05;9.82;;;4.07;;
21095;SDS011;10706;49.036;12.112;2023-07-13T03:50:31;10.48;;;4.22;;
21095;SDS011;10706;49.036;12.112;2023-07-13T03:52:57;11.73;;;4.25;;
21095;SDS011;10706;49.036;12.112;2023-07-13T03:55:23;9.32;;;4.05;;
21095;SDS011;10706;49.036;12.112;2023-07-13T03:57:53;13.07;;;4.50;;
21095;SDS011;10706;49.036;12.112;2023-07-13T04:00:24;13.02;;;4.28;;
21095;SDS011;10706;49.036;12.112;2023-07-13T04:02:50;12.77;;;4.20;;
21095;SDS011;10706;49.036;12.112;2023-07-13T04:05:16;14.13;;;4.60;;
21095;SDS011;10706;49.036;12.112;2023-07-13T04:07:42;13.82;;;4.55;;
21095;SDS011;10706;49.036;12.112;2023-07-13T04:10:08;13.38;;;4.68;;
21095;SDS011;10706;49.036;12.112;2023-07-13T04:12:34;15.65;;;5.03;;
21095;SDS011;10706;49.036;12.112;2023-07-13T04:14:59;15.40;;;4.70;;
21095;SDS011;10706;49.036;12.112;2023-07-13T04:17:25;12.43;;;4.70;;
21095;SDS011;10706;49.036;12.112;2023-07-13T04:19:51;16.63;;;4.90;;
21095;SDS011;10706;49.036;12.112;2023-07-13T04:22:17;17.35;;;5.18;;
21095;SDS011;10706;49.036;12.112;2023-07-13T04:24:42;16.00;;;4.57;;
21095;SDS011;10706;49.036;12.112;2023-07-13T04:27:08;13.93;;;4.57;;
21095;SDS011;10706;49.036;12.112;2023-07-13T04:29:34;13.27;;;4.72;;
21095;SDS011;10706;49.036;12.112;2023-07-13T04:32:00;13.73;;;5.32;;
21095;SDS011;10706;49.036;12.112;2023-07-13T04:34:26;16.90;;;5.20;;
21095;SDS011;10706;49.036;12.112;2023-07-13T04:36:51;16.70;;;5.90;;
21095;SDS011;10706;49.036;12.112;2023-07-13T04:39:17;17.45;;;5.50;;
21095;SDS011;10706;49.036;12.112;2023-07-13T04:41:43;12.82;;;5.03;;
21095;SDS011;10706;49.036;12.112;2023-07-13T04:44:09;12.57;;;5.00;;
21095;SDS011;10706;49.036;12.112;2023-07-13T04:46:34;15.90;;;4.93;;
21095;SDS011;10706;49.036;12.112;2023-07-13T04:49:00;10.25;;;4.65;;
21095;SDS011;10706;49.036;12.112;2023-07-13T04:51:28;17.73;;;4.50;;
21095;SDS011;10706;49.036;12.112;2023-07-13T04:53:54;11.43;;;3.83;;
21095;SDS011;10706;49.036;12.112;2023-07-13T04:56:20;15.43;;;4.10;;
21095;SDS011;10706;49.036;12.112;2023-07-13T04:58:45;9.90;;;3.65;;
21095;SDS011;10706;49.036;12.112;2023-07-13T05:01:11;10.80;;;3.25;;
21095;SDS011;10706;49.036;12.112;2023-07-13T05:03:38;11.65;;;3.88;;
21095;SDS011;10706;49.036;12.112;2023-07-13T05:06:05;8.88;;;3.55;;
21095;SDS011;10706;49.036;12.112;2023-07-13T05:08:34;10.90;;;3.70;;
21095;SDS011;10706;49.036;12.112;2023-07-13T05:11:01;8.60;;;3.55;;
21095;SDS011;10706;49.036;12.112;2023-07-13T05:13:29;9.63;;;3.25;;
21095;SDS011;10706;49.036;12.112;2023-07-13T05:15:55;11.98;;;3.45;;
21095;SDS011;10706;49.036;12.112;2023-07-13T05:18:24;9.73;;;3.25;;
21095;SDS011;10706;49.036;12.112;2023-07-13T05:20:59;9.93;;;3.20;;
21095;SDS011;10706;49.036;12.112;2023-07-13T05:23:30;8.50;;;2.95;;
21095;SDS011;10706;49.036;12.112;2023-07-13T05:25:56;10.10;;;3.00;;
21095;SDS011;10706;49.036;12.112;2023-07-13T05:28:22;9.57;;;2.88;;
21095;SDS011;10706;49.036;12.112;2023-07-13T05:30:48;6.25;;;2.70;;
21095;SDS011;10706;49.036;12.112;2023-07-13T05:33:15;8.55;;;3.25;;
21095;SDS011;10706;49.036;12.112;2023-07-13T05:35:42;9.30;;;2.83;;
21095;SDS011;10706;49.036;12.112;2023-07-13T05:38:07;6.07;;;2.50;;
21095;SDS011;10706;49.036;12.112;2023-07-13T05:40:33;9.02;;;2.63;;
21095;SDS011;10706;49.036;12.112;2023-07-13T05:42:59;7.63;;;2.45;;
21095;SDS011;10706;49.036;12.112;2023-07-13T05:45:25;10.38;;;2.45;;
21095;SDS011;10706;49.036;12.112;2023-07-13T05:47:51;11.15;;;2.40;;
21095;SDS011;10706;49.036;12.112;2023-07-13T05:50:17;5.90;;;2.40;;
21095;SDS011;10706;49.036;12.112;2023-07-13T05:52:43;15.70;;;2.90;;
21095;SDS011;10706;49.036;12.112;2023-07-13T05:55:08;7.18;;;2.50;;
21095;SDS011;10706;49.036;12.112;2023-07-13T05:57:34;8.10;;;2.30;;
21095;SDS011;10706;49.036;12.112;2023-07-13T06:00:00;4.90;;;2.00;;
21095;SDS011;10706;49.036;12.112;2023-07-13T06:02:27;11.75;;;2.45;;
21095;SDS011;10706;49.036;12.112;2023-07-13T06:04:53;10.48;;;2.20;;
21095;SDS011;10706;49.036;12.112;2023-07-13T06:07:19;6.13;;;2.00;;
21095;SDS011;10706;49.036;12.112;2023-07-13T06:09:44;7.40;;;1.85;;
21095;SDS011;10706;49.036;12.112;2023-07-13T06:12:10;8.98;;;2.30;;
21095;SDS011;10706;49.036;12.112;2023-07-13T06:14:36;7.18;;;2.38;;
21095;SDS011;10706;49.036;12.112;2023-07-13T06:17:01;8.32;;;1.98;;
21095;SDS011;10706;49.036;12.112;2023-07-13T06:19:28;10.80;;;2.47;;
21095;SDS011;10706;49.036;12.112;2023-07-13T06:21:54;9.52;;;2.22;;
21095;SDS011;10706;49.036;12.112;2023-07-13T06:24:20;4.25;;;2.08;;
21095;SDS011;10706;49.036;12.112;2023-07-13T06:26:46;6.75;;;2.10;;
21095;SDS011;10706;49.036;12.112;2023-07-13T06:29:12;5.88;;;2.17;;
21095;SDS011;10706;49.036;12.112;2023-07-13T06:31:38;4.57;;;1.75;;
21095;SDS011;10706;49.036;12.112;2023-07-13T06:34:04;9.60;;;2.05;;
21095;SDS011;10706;49.036;12.112;2023-07-13T06:36:29;3.85;;;1.73;;
21095;SDS011;10706;49.036;12.112;2023-07-13T06:38:55;10.80;;;2.15;;
21095;SDS011;10706;49.036;12.112;2023-07-13T06:41:21;4.88;;;1.90;;
21095;SDS011;10706;49.036;12.112;2023-07-13T06:43:47;7.15;;;1.70;;
21095;SDS011;10706;49.036;12.112;2023-07-13T06:46:13;7.03;;;1.98;;
21095;SDS011;10706;49.036;12.112;2023-07-13T06:48:39;5.72;;;1.80;;
21095;SDS011;10706;49.036;12.112;2023-07-13T06:51:04;7.90;;;2.30;;
21095;SDS011;10706;49.036;12.112;2023-07-13T06:53:30;3.63;;;1.80;;
21095;SDS011;10706;49.036;12.112;2023-07-13T06:55:56;12.23;;;2.10;;
21095;SDS011;10706;49.036;12.112;2023-07-13T06:58:22;6.43;;;1.90;;
21095;SDS011;10706;49.036;12.112;2023-07-13T07:00:49;5.28;;;2.00;;
21095;SDS011;10706;49.036;12.112;2023-07-13T07:03:17;5.55;;;1.80;;
21095;SDS011;10706;49.036;12.112;2023-07-13T07:05:43;5.47;;;1.90;;
21095;SDS011;10706;49.036;12.112;2023-07-13T07:08:09;6.65;;;1.60;;
21095;SDS011;10706;49.036;12.112;2023-07-13T07:10:35;5.10;;;2.08;;
21095;SDS011;10706;49.036;12.112;2023-07-13T07:13:01;11.18;;;2.05;;
21095;SDS011;10706;49.036;12.112;2023-07-13T07:15:28;4.32;;;1.45;;
21095;SDS011;10706;49.036;12.112;2023-07-13T07:17:54;9.85;;;1.80;;
21095;SDS011;10706;49.036;12.112;2023-07-13T07:20:20;3.67;;;1.75;;
21095;SDS011;10706;49.036;12.112;2023-07-13T07:22:46;6.82;;;1.88;;
21095;SDS011;10706;49.036;12.112;2023-07-13T07:25:12;5.10;;;1.70;;
21095;SDS011;10706;49.036;12.112;2023-07-13T07:27:38;3.78;;;1.70;;
21095;SDS011;10706;49.036;12.112;2023-07-13T07:30:04;9.65;;;2.13;;
21095;SDS011;10706;49.036;12.112;2023-07-13T07:32:31;8.20;;;1.67;;
21095;SDS011;10706;49.036;12.112;2023-07-13T07:34:57;5.72;;;1.88;;
21095;SDS011;10706;49.036;12.112;2023-07-13T07:37:23;8.68;;;2.10;;
21095;SDS011;10706;49.036;12.112;2023-07-13T07:39:49;6.95;;;1.42;;
21095;SDS011;10706;49.036;12.112;2023-07-13T07:42:15;5.75;;;1.63;;
21095;SDS011;10706;49.036;12.112;2023-07-13T07:44:41;4.93;;;1.88;;
21095;SDS011;10706;49.036;12.112;2023-07-13T07:47:08;8.25;;;1.80;;
21095;SDS011;10706;49.036;12.112;2023-07-13T07:49:34;7.85;;;1.98;;
21095;SDS011;10706;49.036;12.112;2023-07-13T07:52:01;4.60;;;1.50;;
21095;SDS011;10706;49.036;12.112;2023-07-13T07:54:27;4.57;;;1.70;;
21095;SDS011;10706;49.036;12.112;2023-07-13T07:56:53;6.68;;;1.67;;
21095;SDS011;10706;49.036;12.112;2023-07-13T07:59:19;3.65;;;1.73;;
21095;SDS011;10706;49.036;12.112;2023-07-13T08:01:44;7.63;;;1.65;;
21095;SDS011;10706;49.036;12.112;2023-07-13T08:04:12;6.95;;;2.03;;
21095;SDS011;10706;49.036;12.112;2023-07-13T08:06:38;4.85;;;1.60;;
21095;SDS011;10706;49.036;12.112;2023-07-13T08:09:04;6.35;;;1.70;;
21095;SDS011;10706;49.036;12.112;2023-07-13T08:11:30;7.78;;;2.25;;
21095;SDS011;10706;49.036;12.112;2023-07-13T08:13:56;17.85;;;1.90;;
21095;SDS011;10706;49.036;12.112;2023-07-13T08:16:22;3.38;;;1.30;;
21095;SDS011;10706;49.036;12.112;2023-07-13T08:18:48;7.10;;;1.55;;
21095;SDS011;10706;49.036;12.112;2023-07-13T08:21:14;2.47;;;1.23;;
21095;SDS011;10706;49.036;12.112;2023-07-13T08:23:40;7.00;;;2.03;;
21095;SDS011;10706;49.036;12.112;2023-07-13T08:26:06;3.45;;;1.48;;
21095;SDS011;10706;49.036;12.112;2023-07-13T08:28:33;2.85;;;1.42;;
21095;SDS011;10706;49.036;12.112;2023-07-13T08:31:05;5.68;;;1.60;;
21095;SDS011;10706;49.036;12.112;2023-07-13T08:33:33;3.83;;;1.30;;
21095;SDS011;10706;49.036;12.112;2023-07-13T08:36:00;6.10;;;1.65;;
21095;SDS011;10706;49.036;12.112;2023-07-13T08:38:26;4.18;;;1.42;;
21095;SDS011;10706;49.036;12.112;2023-07-13T08:40:53;5.47;;;1.58;;
21095;SDS011;10706;49.036;12.112;2023-07-13T08:43:34;6.18;;;1.60;;
21095;SDS011;10706;49.036;12.112;2023-07-13T08:46:05;2.65;;;1.20;;
21095;SDS011;10706;49.036;12.112;2023-07-13T08:48:45;6.00;;;1.42;;
21095;SDS011;10706;49.036;12.112;2023-07-13T08:51:39;9.35;;;1.38;;
21095;SDS011;10706;49.036;12.112;2023-07-13T08:54:39;2.33;;;1.08;;
21095;SDS011;10706;49.036;12.112;2023-07-13T08:57:14;5.13;;;1.35;;
21095;SDS011;10706;49.036;12.112;2023-07-13T08:59:44;4.90;;;1.30;;
21095;SDS011;10706;49.036;12.112;2023-07-13T09:02:23;7.85;;;1.90;;
21095;SDS011;10706;49.036;12.112;2023-07-13T09:16:51;6.00;;;2.08;;
21095;SDS011;10706;49.036;12.112;2023-07-13T09:19:21;3.22;;;1.73;;
21095;SDS011;10706;49.036;12.112;2023-07-13T09:21:52;8.82;;;2.05;;
21095;SDS011;10706;49.036;12.112;2023-07-13T09:24:37;6.65;;;1.73;;
21095;SDS011;10706;49.036;12.112;2023-07-13T09:27:17;4.18;;;1.35;;
21095;SDS011;10706;49.036;12.112;2023-07-13T09:29:50;9.00;;;1.83;;
21095;SDS011;10706;49.036;12.112;2023-07-13T09:32:40;5.50;;;1.73;;
21095;SDS011;10706;49.036;12.112;2023-07-13T09:35:15;6.45;;;1.75;;
21095;SDS011;10706;49.036;12.112;2023-07-13T09:37:46;6.80;;;2.15;;
21095;SDS011;10706;49.036;12.112;2023-07-13T09:40:24;5.32;;;1.65;;
21095;SDS011;10706;49.036;12.112;2023-07-13T09:43:21;14.38;;;1.80;;
21095;SDS011;10706;49.036;12.112;2023-07-13T09:45:47;4.57;;;1.40;;
21095;SDS011;10706;49.036;12.112;2023-07-13T09:48:13;2.92;;;1.40;;
21095;SDS011;10706;49.036;12.112;2023-07-13T09:50:42;4.57;;;1.08;;
21095;SDS011;10706;49.036;12.112;2023-07-13T09:53:16;7.10;;;1.52;;
21095;SDS011;10706;49.036;12.112;2023-07-13T09:55:45;3.60;;;1.33;;
21095;SDS011;10706;49.036;12.112;2023-07-13T09:58:13;4.63;;;1.25;;
21095;SDS011;10706;49.036;12.112;2023-07-13T10:00:40;4.22;;;1.40;;
21095;SDS011;10706;49.036;12.112;2023-07-13T10:03:22;7.97;;;1.48;;
21095;SDS011;10706;49.036;12.112;2023-07-13T10:05:51;6.68;;;1.52;;
21095;SDS011;10706;49.036;12.112;2023-07-13T10:08:18;4.57;;;1.48;;
21095;SDS011;10706;49.036;12.112;2023-07-13T10:10:59;6.38;;;1.20;;
21095;SDS011;10706;49.036;12.112;2023-07-13T10:13:34;6.35;;;1.90;;
21095;SDS011;10706;49.036;12.112;2023-07-13T10:16:05;5.40;;;1.20;;
21095;SDS011;10706;49.036;12.112;2023-07-13T10:18:46;3.97;;;1.35;;
21095;SDS011;10706;49.036;12.112;2023-07-13T10:21:26;5.55;;;1.45;;
21095;SDS011;10706;49.036;12.112;2023-07-13T10:24:05;4.50;;;1.42;;
21095;SDS011;10706;49.036;12.112;2023-07-13T10:26:44;6.68;;;1.73;;
21095;SDS011;10706;49.036;12.112;2023-07-13T10:29:35;2.67;;;1.23;;
21095;SDS011;10706;49.036;12.112;2023-07-13T10:32:11;3.85;;;1.30;;
21095;SDS011;10706;49.036;12.112;2023-07-13T10:34:38;7.03;;;1.42;;
21095;SDS011;10706;49.036;12.112;2023-07-13T10:37:14;6.25;;;1.50;;
21095;SDS011;10706;49.036;12.112;2023-07-13T10:39:48;12.38;;;1.40;;
21095;SDS011;10706;49.036;12.112;2023-07-13T10:42:19;4.22;;;1.17;;
21095;SDS011;10706;49.036;12.112;2023-07-13T10:44:57;5.57;;;1.90;;
21095;SDS011;10706;49.036;12.112;2023-07-13T10:47:23;4.75;;;1.25;;
21095;SDS011;10706;49.036;12.112;2023-07-13T10:49:52;10.57;;;1.63;;
21095;SDS011;10706;49.036;12.112;2023-07-13T10:58:01;6.82;;;1.20;;
21095;SDS011;10706;49.036;12.112;2023-07-13T11:00:53;4.65;;;1.30;;
21095;SDS011;10706;49.036;12.112;2023-07-13T11:03:34;8.43;;;1.70;;
21095;SDS011;10706;49.036;12.112;2023-07-13T11:13:56;3.60;;;1.30;;
21095;SDS011;10706;49.036;12.112;2023-07-13T11:16:41;5.45;;;1.27;;
21095;SDS011;10706;49.036;12.112;2023-07-13T11:27:42;4.78;;;1.35;;
21095;SDS011;10706;49.036;12.112;2023-07-13T11:33:08;2.72;;;1.33;;
21095;SDS011;10706;49.036;12.112;2023-07-13T11:35:52;6.25;;;1.30;;
21095;SDS011;10706;49.036;12.112;2023-07-13T11:38:22;4.50;;;1.20;;
21095;SDS011;10706;49.036;12.112;2023-07-13T11:40:58;5.20;;;1.38;;
21095;SDS011;10706;49.036;12.112;2023-07-13T11:43:28;2.67;;;1.27;;
21095;SDS011;10706;49.036;12.112;2023-07-13T11:45:54;6.03;;;1.50;;
21095;SDS011;10706;49.036;12.112;2023-07-13T11:48:27;6.78;;;1.50;;
21095;SDS011;10706;49.036;12.112;2023-07-13T11:50:57;4.53;;;1.10;;
21095;SDS011;10706;49.036;12.112;2023-07-13T11:53:31;12.38;;;1.30;;
21095;SDS011;10706;49.036;12.112;2023-07-13T11:56:06;1.90;;;1.10;;
21095;SDS011;10706;49.036;12.112;2023-07-13T11:58:32;11.45;;;1.63;;
21095;SDS011;10706;49.036;12.112;2023-07-13T12:00:59;5.60;;;1.60;;
21095;SDS011;10706;49.036;12.112;2023-07-13T12:03:29;4.13;;;1.30;;
21095;SDS011;10706;49.036;12.112;2023-07-13T12:06:01;3.33;;;1.15;;
21095;SDS011;10706;49.036;12.112;2023-07-13T12:08:37;5.38;;;1.38;;
21095;SDS011;10706;49.036;12.112;2023-07-13T12:11:13;2.38;;;0.90;;
21095;SDS011;10706;49.036;12.112;2023-07-13T12:13:43;4.75;;;1.10;;
21095;SDS011;10706;49.036;12.112;2023-07-13T12:16:14;5.70;;;1.40;;
21095;SDS011;10706;49.036;12.112;2023-07-13T12:18:59;6.10;;;0.95;;
21095;SDS011;10706;49.036;12.112;2023-07-13T12:21:29;3.70;;;1.20;;
21095;SDS011;10706;49.036;12.112;2023-07-13T12:23:58;6.00;;;1.10;;
21095;SDS011;10706;49.036;12.112;2023-07-13T12:26:27;3.50;;;1.20;;
21095;SDS011;10706;49.036;12.112;2023-07-13T12:28:55;4.68;;;0.90;;
21095;SDS011;10706;49.036;12.112;2023-07-13T12:31:30;4.80;;;1.30;;
21095;SDS011;10706;49.036;12.112;2023-07-13T12:34:11;6.47;;;1.23;;
21095;SDS011;10706;49.036;12.112;2023-07-13T12:36:45;4.10;;;1.13;;
21095;SDS011;10706;49.036;12.112;2023-07-13T12:39:36;3.35;;;0.88;;
21095;SDS011;10706;49.036;12.112;2023-07-13T12:42:20;4.88;;;1.25;;
21095;SDS011;10706;49.036;12.112;2023-07-13T12:47:43;4.38;;;1.17;;
21095;SDS011;10706;49.036;12.112;2023-07-13T12:50:21;12.85;;;1.52;;
21095;SDS011;10706;49.036;12.112;2023-07-13T12:52:54;4.38;;;1.20;;
21095;SDS011;10706;49.036;12.112;2023-07-13T12:55:28;7.68;;;1.13;;
21095;SDS011;10706;49.036;12.112;2023-07-13T12:57:57;4.13;;;1.17;;
21095;SDS011;10706;49.036;12.112;2023-07-13T13:02:58;4.47;;;1.10;;
21095;SDS011;10706;49.036;12.112;2023-07-13T13:05:39;2.97;;;1.15;;
21095;SDS011;10706;49.036;12.112;2023-07-13T13:08:08;1.30;;;0.80;;
21095;SDS011;10706;49.036;12.112;2023-07-13T13:10:37;7.50;;;1.13;;
21095;SDS011;10706;49.036;12.112;2023-07-13T13:13:02;4.38;;;1.08;;
21095;SDS011;10706;49.036;12.112;2023-07-13T13:15:28;2.17;;;0.77;;
21095;SDS011;10706;49.036;12.112;2023-07-13T13:17:55;2.67;;;1.25;;
21095;SDS011;10706;49.036;12.112;2023-07-13T13:20:23;4.80;;;0.82;;
21095;SDS011;10706;49.036;12.112;2023-07-13T13:22:50;7.00;;;1.25;;
21095;SDS011;10706;49.036;12.112;2023-07-13T13:25:17;3.00;;;1.17;;
21095;SDS011;10706;49.036;12.112;2023-07-13T13:27:44;6.75;;;1.17;;
21095;SDS011;10706;49.036;12.112;2023-07-13T13:30:11;3.53;;;1.10;;
21095;SDS011;10706;49.036;12.112;2023-07-13T13:32:40;3.72;;;1.20;;
21095;SDS011;10706;49.036;12.112;2023-07-13T13:35:15;2.95;;;1.10;;
21095;SDS011;10706;49.036;12.112;2023-07-13T13:37:43;4.65;;;1.23;;
21095;SDS011;10706;49.036;12.112;2023-07-13T13:40:17;9.05;;;1.48;;
21095;SDS011;10706;49.036;12.112;2023-07-13T13:42:47;3.42;;;1.15;;
21095;SDS011;10706;49.036;12.112;2023-07-13T13:45:14;5.40;;;1.30;;
21095;SDS011;10706;49.036;12.112;2023-07-13T13:47:42;8.32;;;1.40;;
21095;SDS011;10706;49.036;12.112;2023-07-13T13:50:11;6.43;;;1.70;;
21095;SDS011;10706;49.036;12.112;2023-07-13T13:52:42;3.35;;;1.10;;
21095;SDS011;10706;49.036;12.112;2023-07-13T13:55:12;2.90;;;1.05;;
21095;SDS011;10706;49.036;12.112;2023-07-13T13:57:47;4.85;;;1.20;;
21095;SDS011;10706;49.036;12.112;2023-07-13T14:00:14;3.97;;;1.15;;
21095;SDS011;10706;49.036;12.112;2023-07-13T14:02:42;2.92;;;0.95;;
21095;SDS011;10706;49.036;12.112;2023-07-13T14:05:19;3.38;;;1.20;;
21095;SDS011;10706;49.036;12.112;2023-07-13T14:07:48;4.20;;;1.30;;
21095;SDS011;10706;49.036;12.112;2023-07-13T14:10:16;3.80;;;1.02;;
21095;SDS011;10706;49.036;12.112;2023-07-13T14:12:44;5.20;;;1.63;;
21095;SDS011;10706;49.036;12.112;2023-07-13T14:15:15;2.10;;;0.77;;
21095;SDS011;10706;49.036;12.112;2023-07-13T14:17:51;2.17;;;0.80;;
21095;SDS011;10706;49.036;12.112;2023-07-13T14:20:19;2.67;;;1.02;;
21095;SDS011;10706;49.036;12.112;2023-07-13T14:22:49;2.00;;;0.93;;
21095;SDS011;10706;49.036;12.112;2023-07-13T14:25:17;3.90;;;1.30;;
21095;SDS011;10706;49.036;12.112;2023-07-13T14:27:45;3.22;;;1.02;;
21095;SDS011;10706;49.036;12.112;2023-07-13T14:32:43;2.92;;;1.25;;
21095;SDS011;10706;49.036;12.112;2023-07-13T14:35:12;6.00;;;1.25;;
21095;SDS011;10706;49.036;12.112;2023-07-13T14:37:40;5.68;;;1.33;;
21095;SDS011;10706;49.036;12.112;2023-07-13T14:40:15;3.58;;;1.25;;
21095;SDS011;10706;49.036;12.112;2023-07-13T14:42:46;5.05;;;1.23;;
21095;SDS011;10706;49.036;12.112;2023-07-13T14:45:15;3.30;;;1.33;;
21095;SDS011;10706;49.036;12.112;2023-07-13T14:47:44;7.53;;;1.38;;
21095;SDS011;10706;49.036;12.112;2023-07-13T14:52:41;5.00;;;1.20;;
21095;SDS011;10706;49.036;12.112;2023-07-13T14:55:12;5.65;;;1.20;;
21095;SDS011;10706;49.036;12.112;2023-07-13T14:57:40;2.97;;;1.10;;
21095;SDS011;10706;49.036;12.112;2023-07-13T15:00:13;5.10;;;1.10;;
21095;SDS011;10706;49.036;12.112;2023-07-13T15:02:49;8.63;;;1.35;;
21095;SDS011;10706;49.036;12.112;2023-07-13T15:05:20;3.00;;;1.10;;
21095;SDS011;10706;49.036;12.112;2023-07-13T15:07:52;4.95;;;1.30;;
21095;SDS011;10706;49.036;12.112;2023-07-13T15:10:20;5.90;;;1.25;;
21095;SDS011;10706;49.036;12.112;2023-07-13T15:12:50;4.70;;;1.30;;
21095;SDS011;10706;49.036;12.112;2023-07-13T15:15:18;3.78;;;1.33;;
21095;SDS011;10706;49.036;12.112;2023-07-13T15:17:45;3.88;;;1.13;;
21095;SDS011;10706;49.036;12.112;2023-07-13T15:20:15;9.82;;;1.20;;
21095;SDS011;10706;49.036;12.112;2023-07-13T15:22:49;3.95;;;1.20;;
21095;SDS011;10706;49.036;12.112;2023-07-13T15:25:18;3.55;;;1.10;;
21095;SDS011;10706;49.036;12.112;2023-07-13T15:27:50;5.07;;;1.23;;
21095;SDS011;10706;49.036;12.112;2023-07-13T15:30:18;4.30;;;1.25;;
21095;SDS011;10706;49.036;12.112;2023-07-13T15:32:44;8.10;;;1.30;;